ウラジオストク の空港の天気 - METARとTAF

ウラジオストク空港 ( UHWW / VVO ) - ロシア ウラジオストク
飛行場実況気象(Metar)
観測時間10/24 12:30 VLAT (10/24 02:30 UTC)
風向・風速西南西 2m/s
視程10km以上
天気現象
なし
気温14℃
湿度44%
気圧1026hPa
METARUHWW 240230Z 25002MPS 9999 NSC 14/02 Q1026 R25L/0///70 NOSIG RMK QFE768
過去の天気等 Google飛行場航空写真 Wunderground天気予報

過去48時間のMETAR

飛行場予報(TAF)
発表時間: 10/24 12:00 VLAT (10/24 02:00 UTC)
予報対象時間: 24日13時 VLAT ~ 25日13時 VLAT
風向・風速南西 3m/s
視程10km以上
全天の4割程度の雲 雲底高度 910m
24日21時 VLAT から
風向・風速南 3m/s
視程4000m
天気現象もや
全天の8割程度の雲 雲底高度 370m
TAF UHWW 240200Z 2403/2503 22003MPS 9999 SCT030
FM241100 18003MPS 4000 BR BKN012